Time;durP1;ratioP1;P1;durP2;ratioP2;P2;SDS_P1;SDS_P2;PMS_P1;PMS_P2;Temp;Humidity;BMP_temperature;BMP_pressure;BME280_temperature;BME280_humidity;BME280_pressure;Samples;Min_cycle;Max_cycle;Signal;HPM_P1;HPM_P2
2021/09/19 00:00:22;;;;;;;9.23;6.88;;;15.50;99.90;;;;;;4975146;28;20219;-74
2021/09/19 00:02:49;;;;;;;8.20;6.50;;;15.40;99.90;;;;;;4975005;28;20235;-75
2021/09/19 00:05:17;;;;;;;8.93;7.38;;;15.40;99.90;;;;;;4975224;28;20590;-75
2021/09/19 00:07:43;;;;;;;10.27;8.13;;;15.40;99.90;;;;;;4975165;28;20616;-74
2021/09/19 00:10:15;;;;;;;10.30;8.77;;;15.40;99.90;;;;;;4974926;28;20739;-74
2021/09/19 00:12:42;;;;;;;9.80;7.15;;;15.30;99.90;;;;;;4974991;28;20215;-74
2021/09/19 00:15:11;;;;;;;9.70;8.00;;;15.30;99.90;;;;;;4974969;28;20236;-74
2021/09/19 00:17:38;;;;;;;13.38;7.78;;;15.30;99.90;;;;;;4974969;28;20207;-74
2021/09/19 00:20:06;;;;;;;7.70;6.70;;;15.20;99.90;;;;;;4974714;28;20208;-75
2021/09/19 00:22:34;;;;;;;9.35;8.20;;;15.20;99.90;;;;;;4974605;28;20222;-74
2021/09/19 00:25:01;;;;;;;11.73;8.68;;;15.20;99.90;;;;;;4974943;28;20299;-74
2021/09/19 00:27:29;;;;;;;10.45;8.40;;;15.10;99.90;;;;;;4974796;28;20745;-75
2021/09/19 00:29:56;;;;;;;11.55;9.20;;;15.10;99.90;;;;;;4974796;28;20728;-74
2021/09/19 00:32:23;;;;;;;12.35;8.70;;;15.00;99.90;;;;;;4974373;28;20203;-74
2021/09/19 00:34:50;;;;;;;9.65;7.65;;;15.00;99.90;;;;;;4975198;28;20238;-74
2021/09/19 00:37:17;;;;;;;12.50;9.25;;;15.00;99.90;;;;;;4974828;28;20298;-74
2021/09/19 00:39:43;;;;;;;12.05;8.85;;;15.00;99.90;;;;;;4974675;28;20208;-74
2021/09/19 00:42:10;;;;;;;13.05;8.75;;;14.90;99.90;;;;;;4974458;28;20293;-75
2021/09/19 00:44:39;;;;;;;11.05;7.97;;;14.90;99.90;;;;;;4974491;28;20224;-74
2021/09/19 00:47:05;;;;;;;11.75;8.95;;;14.90;99.90;;;;;;4974761;28;20298;-75
2021/09/19 00:49:32;;;;;;;11.52;9.38;;;15.00;99.90;;;;;;4974522;28;20218;-74
2021/09/19 00:51:59;;;;;;;11.85;9.32;;;15.00;99.90;;;;;;4977487;28;20297;-74
2021/09/19 00:54:26;;;;;;;13.68;9.77;;;15.00;99.90;;;;;;4978599;28;20327;-74
2021/09/19 00:56:56;;;;;;;12.00;9.02;;;15.00;99.90;;;;;;4978524;28;20208;-75
2021/09/19 00:59:23;;;;;;;11.70;9.00;;;14.90;99.90;;;;;;4978531;28;20214;-75
2021/09/19 01:01:52;;;;;;;14.55;9.30;;;14.90;99.90;;;;;;4978379;28;20204;-74
2021/09/19 01:04:20;;;;;;;10.85;8.02;;;14.90;99.90;;;;;;4978456;28;20223;-75
2021/09/19 01:06:47;;;;;;;11.18;7.75;;;14.80;99.90;;;;;;4978291;28;20210;-74
2021/09/19 01:09:14;;;;;;;10.75;8.18;;;14.80;99.90;;;;;;4978409;28;20207;-75
2021/09/19 01:11:41;;;;;;;11.05;8.10;;;14.70;99.90;;;;;;4978028;28;20207;-75
2021/09/19 01:14:08;;;;;;;12.35;8.18;;;14.70;99.90;;;;;;4978099;28;20241;-74
2021/09/19 01:16:35;;;;;;;11.40;9.48;;;14.70;99.90;;;;;;4978273;28;20207;-75
2021/09/19 01:19:06;;;;;;;10.75;8.90;;;14.70;99.90;;;;;;4978012;28;20211;-75
2021/09/19 01:21:33;;;;;;;11.43;8.85;;;14.70;99.90;;;;;;4977943;28;20582;-74
2021/09/19 01:24:03;;;;;;;12.52;9.05;;;14.60;99.90;;;;;;4977919;28;20224;-74
2021/09/19 01:26:32;;;;;;;10.68;8.40;;;14.60;99.90;;;;;;4978143;28;20286;-75
2021/09/19 01:29:00;;;;;;;13.63;9.70;;;14.60;99.90;;;;;;4978026;28;20213;-75
2021/09/19 01:31:28;;;;;;;10.68;8.43;;;14.50;99.90;;;;;;4977800;28;20214;-75
2021/09/19 01:33:56;;;;;;;11.10;8.82;;;14.50;99.90;;;;;;4976533;28;20237;-74
2021/09/19 01:36:23;;;;;;;13.05;9.35;;;14.50;99.90;;;;;;4976720;28;20204;-75
2021/09/19 01:38:50;;;;;;;9.70;8.23;;;14.50;99.90;;;;;;4976607;28;20214;-74
2021/09/19 01:41:19;;;;;;;10.85;7.65;;;14.50;99.90;;;;;;4976867;28;20657;-74
2021/09/19 01:43:46;;;;;;;10.73;8.55;;;14.50;99.90;;;;;;4976550;28;20228;-75
2021/09/19 01:46:13;;;;;;;10.60;8.70;;;14.40;99.90;;;;;;4976354;28;20302;-75
2021/09/19 01:48:41;;;;;;;10.18;8.18;;;14.40;99.90;;;;;;4976500;28;20214;-75
2021/09/19 01:51:09;;;;;;;12.57;9.27;;;14.40;99.90;;;;;;4976207;28;20214;-75
2021/09/19 01:53:36;;;;;;;10.93;8.88;;;14.30;99.90;;;;;;4976275;28;20235;-75
2021/09/19 01:56:04;;;;;;;9.98;8.07;;;14.40;99.90;;;;;;4976114;28;20229;-74
2021/09/19 01:58:32;;;;;;;11.40;9.40;;;14.40;99.90;;;;;;4976369;28;20208;-74
2021/09/19 02:01:01;;;;;;;11.35;8.65;;;14.30;99.90;;;;;;4976069;28;20663;-74
2021/09/19 02:03:28;;;;;;;9.15;7.65;;;14.20;99.90;;;;;;4975895;28;20230;-75
2021/09/19 02:05:58;;;;;;;11.93;8.35;;;14.20;99.90;;;;;;4976013;28;20294;-74
2021/09/19 02:08:24;;;;;;;9.27;7.38;;;14.30;99.90;;;;;;4976161;28;20209;-74
2021/09/19 02:10:51;;;;;;;8.98;7.85;;;14.30;99.90;;;;;;4975955;28;20669;-74
2021/09/19 02:13:18;;;;;;;9.70;7.53;;;14.30;99.90;;;;;;4975854;28;20227;-74
2021/09/19 02:15:46;;;;;;;9.68;7.65;;;14.30;99.90;;;;;;4976117;28;20646;-74
2021/09/19 02:18:13;;;;;;;12.77;8.88;;;14.30;99.90;;;;;;4976035;28;20309;-74
2021/09/19 02:20:41;;;;;;;11.68;9.02;;;14.30;99.90;;;;;;4975951;28;20721;-75
2021/09/19 02:23:07;;;;;;;10.77;8.93;;;14.30;99.90;;;;;;4975511;28;20215;-75
2021/09/19 02:25:34;;;;;;;12.55;8.38;;;14.30;99.90;;;;;;4976021;28;20209;-75
2021/09/19 02:28:01;;;;;;;9.40;7.72;;;14.30;99.90;;;;;;4975780;28;20248;-75
2021/09/19 02:30:28;;;;;;;13.70;9.25;;;14.30;99.90;;;;;;4975756;28;20298;-74
2021/09/19 02:32:56;;;;;;;11.03;8.93;;;14.20;99.90;;;;;;4938601;28;1084097;-74
2021/09/19 02:35:23;;;;;;;14.00;9.90;;;14.10;99.90;;;;;;4976727;28;20265;-75
2021/09/19 02:37:50;;;;;;;11.90;9.35;;;14.10;99.90;;;;;;4976777;28;20209;-75
2021/09/19 02:40:18;;;;;;;11.80;8.85;;;14.00;99.90;;;;;;4976751;28;20581;-74
2021/09/19 02:42:45;;;;;;;14.20;10.30;;;14.10;99.90;;;;;;4976550;28;20302;-74
2021/09/19 02:45:13;;;;;;;11.48;8.90;;;14.00;99.90;;;;;;4976360;28;20775;-75
2021/09/19 02:47:41;;;;;;;13.13;9.10;;;13.90;99.90;;;;;;4976509;28;20202;-74
2021/09/19 02:50:14;;;;;;;12.20;9.23;;;13.90;99.90;;;;;;4976546;28;20210;-74
2021/09/19 02:52:41;;;;;;;13.23;9.63;;;14.00;99.90;;;;;;4976570;28;20211;-74
2021/09/19 02:55:10;;;;;;;13.18;9.40;;;14.10;99.90;;;;;;4976388;28;20326;-74
2021/09/19 02:57:38;;;;;;;12.48;9.65;;;14.00;99.90;;;;;;4976425;28;20214;-74
2021/09/19 03:00:06;;;;;;;12.85;8.93;;;14.10;99.90;;;;;;4976381;28;20234;-74
2021/09/19 03:02:32;;;;;;;13.20;9.43;;;14.00;99.90;;;;;;4976008;28;20210;-74
2021/09/19 03:04:59;;;;;;;11.35;8.23;;;14.00;99.90;;;;;;4975973;28;20313;-75
2021/09/19 03:07:27;;;;;;;13.52;8.90;;;14.00;99.90;;;;;;4976259;28;20302;-75
2021/09/19 03:09:54;;;;;;;11.57;8.15;;;14.00;99.90;;;;;;4976188;28;20301;-74
2021/09/19 03:12:21;;;;;;;11.90;9.00;;;14.00;99.90;;;;;;4975777;28;20298;-74
2021/09/19 03:14:48;;;;;;;13.90;9.07;;;14.00;99.90;;;;;;4974924;28;20318;-74
2021/09/19 03:17:15;;;;;;;13.80;8.70;;;14.00;99.90;;;;;;4976054;28;20305;-74
2021/09/19 03:19:42;;;;;;;10.20;8.20;;;14.00;99.90;;;;;;4976036;28;20657;-74
2021/09/19 03:22:08;;;;;;;11.25;9.65;;;14.00;99.90;;;;;;4975822;28;20293;-74
2021/09/19 03:24:37;;;;;;;20.35;8.85;;;13.90;99.90;;;;;;4975620;28;20218;-74
2021/09/19 03:27:04;;;;;;;11.55;8.80;;;13.90;99.90;;;;;;4975682;28;20305;-74
2021/09/19 03:29:31;;;;;;;10.70;8.73;;;13.80;99.90;;;;;;4975788;28;20628;-74
2021/09/19 03:31:58;;;;;;;14.45;10.18;;;13.80;99.90;;;;;;4975399;28;20206;-74
2021/09/19 03:34:25;;;;;;;10.98;8.60;;;13.70;99.90;;;;;;4975220;28;20313;-74
2021/09/19 03:36:52;;;;;;;14.05;9.70;;;13.60;99.90;;;;;;4975571;28;20267;-74
2021/09/19 03:39:19;;;;;;;12.43;8.98;;;13.60;99.90;;;;;;4975646;28;20206;-74
2021/09/19 03:41:47;;;;;;;11.82;8.88;;;13.60;99.90;;;;;;4975357;28;20405;-74
2021/09/19 03:44:14;;;;;;;12.18;9.07;;;13.70;99.90;;;;;;4975347;28;20265;-74
2021/09/19 03:46:40;;;;;;;11.55;8.68;;;13.70;99.90;;;;;;4975284;28;20809;-74
2021/09/19 03:49:07;;;;;;;11.10;8.50;;;13.80;99.90;;;;;;4975309;28;20220;-74
2021/09/19 03:51:34;;;;;;;10.75;7.75;;;13.70;99.90;;;;;;4975094;28;20206;-74
2021/09/19 03:54:01;;;;;;;11.90;8.75;;;13.60;99.90;;;;;;4975184;28;20223;-74
2021/09/19 03:56:28;;;;;;;13.55;9.25;;;13.60;99.90;;;;;;4975301;28;20321;-74
2021/09/19 03:58:56;;;;;;;11.77;8.93;;;13.60;99.90;;;;;;4975080;28;20580;-74
2021/09/19 04:01:23;;;;;;;11.30;8.95;;;13.60;99.90;;;;;;4975083;28;20297;-74
2021/09/19 04:03:50;;;;;;;13.80;8.52;;;13.50;99.90;;;;;;4974997;28;20237;-74
2021/09/19 04:06:17;;;;;;;10.10;8.70;;;13.50;99.90;;;;;;4975261;28;20637;-74
2021/09/19 04:08:44;;;;;;;11.98;8.80;;;13.60;99.90;;;;;;4975187;28;20213;-75
2021/09/19 04:11:10;;;;;;;12.35;9.43;;;13.60;99.90;;;;;;4974860;28;20274;-74
2021/09/19 04:13:37;;;;;;;10.32;8.23;;;13.60;99.90;;;;;;4975095;28;20317;-74
2021/09/19 04:16:06;;;;;;;15.43;9.63;;;13.60;99.90;;;;;;4974818;28;20769;-74
2021/09/19 04:18:33;;;;;;;12.55;9.48;;;13.50;99.90;;;;;;4974890;28;20732;-74
2021/09/19 04:21:00;;;;;;;12.50;9.20;;;13.50;99.90;;;;;;4975024;28;20213;-73
2021/09/19 04:23:27;;;;;;;11.45;7.95;;;13.50;99.90;;;;;;4974800;28;20230;-74
2021/09/19 04:25:53;;;;;;;13.35;9.45;;;13.50;99.90;;;;;;4975415;28;20198;-75
2021/09/19 04:28:20;;;;;;;12.93;9.75;;;13.40;99.90;;;;;;4974749;28;20301;-74
2021/09/19 04:30:47;;;;;;;11.45;8.80;;;13.40;99.90;;;;;;4974915;28;20305;-74
2021/09/19 04:33:15;;;;;;;10.80;8.05;;;13.50;99.90;;;;;;4974487;28;20345;-74
2021/09/19 04:35:42;;;;;;;12.13;8.85;;;13.50;99.90;;;;;;4974545;28;20321;-74
2021/09/19 04:38:09;;;;;;;12.75;8.90;;;13.50;99.90;;;;;;4974824;28;20564;-74
2021/09/19 04:40:36;;;;;;;10.93;7.97;;;13.50;99.90;;;;;;4974756;28;20301;-75
2021/09/19 04:43:03;;;;;;;10.75;8.48;;;13.50;99.90;;;;;;4974380;28;20212;-74
2021/09/19 04:45:30;;;;;;;13.02;9.13;;;13.40;99.90;;;;;;4974830;28;20292;-74
2021/09/19 04:47:57;;;;;;;11.95;8.75;;;13.30;99.90;;;;;;4974631;28;20661;-74
2021/09/19 04:50:25;;;;;;;12.75;8.75;;;13.30;99.90;;;;;;4974757;28;20345;-74
2021/09/19 04:52:51;;;;;;;12.90;8.85;;;13.30;99.90;;;;;;4974225;28;20206;-74
2021/09/19 04:55:18;;;;;;;10.98;8.18;;;13.30;99.90;;;;;;4974656;28;20249;-74
2021/09/19 04:57:45;;;;;;;11.70;8.95;;;13.30;99.90;;;;;;4974653;28;20205;-74
2021/09/19 05:00:13;;;;;;;11.68;8.63;;;13.30;99.90;;;;;;4974652;28;20621;-74
2021/09/19 05:02:40;;;;;;;11.43;8.07;;;13.30;99.90;;;;;;4974415;28;20206;-74
2021/09/19 05:05:08;;;;;;;11.13;8.15;;;13.30;99.90;;;;;;4974300;28;20808;-74
2021/09/19 05:07:36;;;;;;;13.15;8.27;;;13.30;99.90;;;;;;4974509;28;20751;-74
2021/09/19 05:10:04;;;;;;;11.40;9.02;;;13.30;99.90;;;;;;4974569;28;20202;-74
2021/09/19 05:12:31;;;;;;;10.65;8.20;;;13.30;99.90;;;;;;4974338;28;20209;-74
2021/09/19 05:14:58;;;;;;;12.07;8.45;;;13.40;99.90;;;;;;4974100;28;20226;-74
2021/09/19 05:17:24;;;;;;;11.90;8.90;;;13.40;99.90;;;;;;4974479;28;20297;-75
2021/09/19 05:19:51;;;;;;;10.20;7.88;;;13.40;99.90;;;;;;4974406;28;20699;-74
2021/09/19 05:22:18;;;;;;;11.63;9.02;;;13.30;99.90;;;;;;4974298;28;20213;-74
2021/09/19 05:24:46;;;;;;;12.13;8.40;;;13.30;99.90;;;;;;4974416;28;20236;-74
2021/09/19 05:27:13;;;;;;;10.98;8.20;;;13.30;99.90;;;;;;4974397;28;20293;-74
2021/09/19 05:29:40;;;;;;;14.95;8.35;;;13.30;99.90;;;;;;4974392;28;20625;-75
2021/09/19 05:32:07;;;;;;;12.05;8.85;;;13.40;99.90;;;;;;4973959;28;20301;-75
2021/09/19 05:34:34;;;;;;;10.98;8.30;;;13.30;99.90;;;;;;4974186;28;20309;-74
2021/09/19 05:37:01;;;;;;;11.07;7.97;;;13.30;99.90;;;;;;4975442;28;20236;-74
2021/09/19 05:39:28;;;;;;;12.88;7.70;;;13.40;99.90;;;;;;4977862;28;20293;-74
2021/09/19 05:41:56;;;;;;;11.52;8.60;;;13.30;99.90;;;;;;4977448;28;20557;-74
2021/09/19 05:44:23;;;;;;;11.85;9.07;;;13.30;99.90;;;;;;4977426;28;20313;-74
2021/09/19 05:46:50;;;;;;;10.85;8.15;;;13.30;99.90;;;;;;4977715;28;20237;-74
2021/09/19 05:49:16;;;;;;;11.35;8.20;;;13.30;99.90;;;;;;4977656;28;20202;-74
2021/09/19 05:51:43;;;;;;;12.07;8.80;;;13.40;99.90;;;;;;4977502;28;20209;-74
2021/09/19 05:54:10;;;;;;;14.18;8.80;;;13.40;99.90;;;;;;4977298;28;20750;-74
2021/09/19 05:56:37;;;;;;;11.40;8.10;;;13.30;99.90;;;;;;4977472;28;20234;-74
2021/09/19 05:59:05;;;;;;;11.77;8.43;;;13.30;99.90;;;;;;4977515;28;20313;-74
2021/09/19 06:01:32;;;;;;;12.10;8.60;;;13.30;99.90;;;;;;4977235;28;20210;-74
2021/09/19 06:03:59;;;;;;;12.45;8.85;;;13.30;99.90;;;;;;4977119;28;20226;-74
2021/09/19 06:06:25;;;;;;;15.15;9.98;;;13.30;99.90;;;;;;4977395;28;20202;-74
2021/09/19 06:08:52;;;;;;;13.00;8.30;;;13.30;99.90;;;;;;4977335;28;20297;-74
2021/09/19 06:11:19;;;;;;;11.32;8.25;;;13.40;99.90;;;;;;4977099;28;20293;-74
2021/09/19 06:13:46;;;;;;;11.70;8.70;;;13.40;99.90;;;;;;4977152;28;20225;-74
2021/09/19 06:16:14;;;;;;;11.48;8.48;;;13.50;99.90;;;;;;4977117;28;20234;-74
2021/09/19 06:18:41;;;;;;;11.20;8.52;;;13.50;99.90;;;;;;4977130;28;20202;-74
2021/09/19 06:21:08;;;;;;;10.68;8.20;;;13.50;99.90;;;;;;4976787;28;20211;-74
2021/09/19 06:23:36;;;;;;;12.57;8.45;;;13.60;99.90;;;;;;4977012;28;20280;-74
2021/09/19 06:26:04;;;;;;;12.38;8.65;;;13.60;99.90;;;;;;4977099;28;20286;-74
2021/09/19 06:28:30;;;;;;;10.18;7.72;;;13.60;99.90;;;;;;4976978;28;20216;-74
2021/09/19 06:30:59;;;;;;;10.10;8.38;;;13.50;99.90;;;;;;4976673;28;20298;-75
2021/09/19 06:33:27;;;;;;;11.70;8.23;;;13.50;99.90;;;;;;4976574;28;20601;-74
2021/09/19 06:35:54;;;;;;;9.88;7.45;;;13.60;99.90;;;;;;4976851;28;20232;-74
2021/09/19 06:38:21;;;;;;;11.60;7.95;;;13.70;99.90;;;;;;4976713;28;20297;-74
2021/09/19 06:40:48;;;;;;;9.98;7.82;;;13.60;99.90;;;;;;4976664;28;20676;-74
2021/09/19 06:43:15;;;;;;;10.90;8.05;;;13.50;99.90;;;;;;4976467;28;20222;-74
2021/09/19 06:45:42;;;;;;;11.50;7.88;;;13.50;99.90;;;;;;4976655;28;20213;-74
2021/09/19 06:48:08;;;;;;;10.07;8.18;;;13.50;99.90;;;;;;4975539;28;20572;-74
2021/09/19 06:50:37;;;;;;;10.82;7.82;;;13.60;99.90;;;;;;4976565;28;20202;-74
2021/09/19 06:53:04;;;;;;;10.27;8.15;;;13.50;99.90;;;;;;4976297;28;20202;-74
2021/09/19 06:55:31;;;;;;;9.85;7.93;;;13.50;99.90;;;;;;4976471;28;20212;-74
2021/09/19 06:57:58;;;;;;;9.65;7.05;;;13.50;99.90;;;;;;4976405;28;20300;-74
2021/09/19 07:00:25;;;;;;;9.07;7.40;;;13.60;99.90;;;;;;4976368;28;20207;-74
2021/09/19 07:02:52;;;;;;;9.57;7.18;;;13.80;99.90;;;;;;4976122;28;20209;-74
2021/09/19 07:05:20;;;;;;;7.57;6.00;;;13.90;99.90;;;;;;4976060;28;20294;-74
2021/09/19 07:07:48;;;;;;;10.50;7.43;;;14.00;99.90;;;;;;4976041;28;20293;-74
2021/09/19 07:10:15;;;;;;;9.95;7.30;;;14.00;99.90;;;;;;4976094;28;20207;-75
2021/09/19 07:12:42;;;;;;;9.63;7.78;;;13.80;99.90;;;;;;4975989;28;20213;-74
2021/09/19 07:15:10;;;;;;;9.02;6.50;;;13.80;99.90;;;;;;4975755;28;20230;-74
2021/09/19 07:17:37;;;;;;;10.48;7.63;;;13.90;99.90;;;;;;4975859;28;20317;-74
2021/09/19 07:20:04;;;;;;;6.43;5.70;;;14.00;99.90;;;;;;4976013;28;20209;-74
2021/09/19 07:22:31;;;;;;;7.97;6.50;;;14.10;99.90;;;;;;4975665;28;20210;-74
2021/09/19 07:24:59;;;;;;;7.78;6.30;;;14.10;99.90;;;;;;4975860;28;20230;-74
2021/09/19 07:27:26;;;;;;;8.30;6.05;;;14.00;99.90;;;;;;4975879;28;20206;-74
2021/09/19 07:29:54;;;;;;;10.50;7.18;;;14.00;99.90;;;;;;4975874;28;20206;-74
2021/09/19 07:32:21;;;;;;;8.82;6.00;;;14.10;99.90;;;;;;4975510;28;20555;-74
2021/09/19 07:34:48;;;;;;;7.60;5.85;;;14.10;99.90;;;;;;4975778;28;20234;-74
2021/09/19 07:37:16;;;;;;;6.05;5.40;;;14.20;99.90;;;;;;4975577;28;20223;-75
2021/09/19 07:39:43;;;;;;;7.10;5.65;;;14.30;99.90;;;;;;4975409;28;20217;-74
2021/09/19 07:42:12;;;;;;;6.43;5.10;;;14.40;99.90;;;;;;4975440;28;20212;-74
2021/09/19 07:44:39;;;;;;;8.05;5.55;;;14.40;99.90;;;;;;4975581;28;20256;-74
2021/09/19 07:47:07;;;;;;;6.68;5.07;;;14.50;99.90;;;;;;4975390;28;20658;-74
2021/09/19 07:49:36;;;;;;;5.95;4.63;;;14.50;99.90;;;;;;4975405;28;20680;-74
2021/09/19 07:52:04;;;;;;;6.03;5.20;;;14.60;99.90;;;;;;4975152;28;20645;-74
2021/09/19 07:54:31;;;;;;;5.80;4.93;;;14.60;99.90;;;;;;4975118;28;20235;-75
2021/09/19 07:56:58;;;;;;;5.38;4.40;;;14.70;99.90;;;;;;4975297;28;20236;-74
2021/09/19 07:59:26;;;;;;;6.22;4.75;;;14.60;99.90;;;;;;4974972;28;20204;-74
2021/09/19 08:01:53;;;;;;;5.97;5.10;;;14.50;99.90;;;;;;4975052;28;20218;-74
2021/09/19 08:04:20;;;;;;;5.47;4.28;;;14.40;99.90;;;;;;4974920;28;20710;-74
2021/09/19 08:06:47;;;;;;;5.43;4.53;;;14.50;99.90;;;;;;4975235;28;20206;-74
2021/09/19 08:09:13;;;;;;;5.55;4.55;;;14.60;99.90;;;;;;4974972;28;20208;-74
2021/09/19 08:11:40;;;;;;;5.20;4.40;;;14.70;99.90;;;;;;4974985;28;20208;-74
2021/09/19 08:14:07;;;;;;;6.68;5.10;;;14.80;99.90;;;;;;4974990;28;20790;-74
2021/09/19 08:16:37;;;;;;;6.25;5.07;;;14.90;99.90;;;;;;4975116;28;20263;-74
2021/09/19 08:19:05;;;;;;;5.82;4.75;;;14.90;99.90;;;;;;4975004;28;20310;-74
2021/09/19 08:21:32;;;;;;;7.00;5.45;;;14.90;99.90;;;;;;4974856;28;20355;-74
2021/09/19 08:23:59;;;;;;;5.68;4.38;;;14.90;99.90;;;;;;4975009;28;20237;-74
2021/09/19 08:26:26;;;;;;;5.60;4.32;;;14.80;99.90;;;;;;4974840;28;20761;-74
2021/09/19 08:28:52;;;;;;;5.25;4.35;;;14.80;99.90;;;;;;4974949;28;20233;-74
2021/09/19 08:31:19;;;;;;;5.28;4.72;;;14.90;99.90;;;;;;4974685;28;20307;-74
2021/09/19 08:33:47;;;;;;;5.63;4.50;;;14.80;99.90;;;;;;4974517;28;20716;-74
2021/09/19 08:36:14;;;;;;;5.53;4.90;;;14.90;99.90;;;;;;4974507;28;20788;-74
2021/09/19 08:38:41;;;;;;;5.97;5.03;;;15.10;99.90;;;;;;4974667;28;20203;-74
2021/09/19 08:41:08;;;;;;;5.45;4.90;;;15.00;99.90;;;;;;4974626;28;20209;-74
2021/09/19 08:43:35;;;;;;;5.13;4.63;;;15.00;99.90;;;;;;4974719;28;20319;-74
2021/09/19 08:46:02;;;;;;;5.50;4.63;;;15.00;99.90;;;;;;4974771;28;20216;-75
2021/09/19 08:48:31;;;;;;;5.75;5.10;;;15.00;99.90;;;;;;4974445;28;20204;-74
2021/09/19 08:51:00;;;;;;;5.38;4.80;;;15.00;99.90;;;;;;4974656;28;20295;-74
2021/09/19 08:53:28;;;;;;;4.55;4.10;;;15.20;99.90;;;;;;4974407;28;20744;-74
2021/09/19 08:55:55;;;;;;;5.30;4.43;;;15.30;99.90;;;;;;4974399;28;20223;-74
2021/09/19 08:58:22;;;;;;;4.68;4.13;;;15.40;99.90;;;;;;4974652;28;20216;-74
2021/09/19 09:00:49;;;;;;;6.22;4.95;;;15.50;99.90;;;;;;4974596;28;20545;-74
2021/09/19 09:03:17;;;;;;;5.80;4.85;;;15.50;99.90;;;;;;4974407;28;20230;-74
2021/09/19 09:05:44;;;;;;;4.90;4.07;;;15.60;99.90;;;;;;4974649;28;20209;-74
2021/09/19 09:08:13;;;;;;;7.85;4.75;;;15.70;99.90;;;;;;4974570;28;20296;-74
2021/09/19 09:10:42;;;;;;;5.43;4.88;;;15.70;99.90;;;;;;4974464;28;20580;-74
2021/09/19 09:13:12;;;;;;;5.03;4.35;;;15.80;99.90;;;;;;4977391;28;20209;-74
2021/09/19 09:15:42;;;;;;;5.43;4.65;;;15.80;99.90;;;;;;4978112;28;20213;-74
2021/09/19 09:18:13;;;;;;;4.80;4.03;;;15.90;99.90;;;;;;4978200;28;20326;-74
2021/09/19 09:20:56;;;;;;;5.55;4.72;;;16.00;99.90;;;;;;4978304;28;20575;-74
2021/09/19 09:23:33;;;;;;;5.15;4.13;;;16.10;99.90;;;;;;4977967;28;20233;-74
2021/09/19 09:26:18;;;;;;;5.45;4.45;;;16.10;99.90;;;;;;4977906;28;20663;-74
2021/09/19 09:28:48;;;;;;;6.10;5.07;;;16.20;99.90;;;;;;4978158;28;20244;-74
2021/09/19 09:31:21;;;;;;;4.40;4.00;;;16.40;99.90;;;;;;4977821;28;20631;-74
2021/09/19 09:34:08;;;;;;;5.10;4.60;;;16.50;99.90;;;;;;4978088;28;20234;-74
2021/09/19 09:36:54;;;;;;;4.45;4.03;;;16.50;99.90;;;;;;4977917;28;20233;-74
2021/09/19 09:39:31;;;;;;;5.50;4.95;;;16.60;99.90;;;;;;4977897;28;20210;-74
2021/09/19 09:42:01;;;;;;;4.00;3.60;;;16.70;99.90;;;;;;4977522;28;20292;-74
2021/09/19 09:44:35;;;;;;;4.22;3.83;;;16.80;99.90;;;;;;4977729;28;20700;-74
2021/09/19 09:47:05;;;;;;;4.38;3.97;;;16.90;99.90;;;;;;4977768;28;20201;-74
2021/09/19 09:49:38;;;;;;;5.03;4.40;;;17.20;99.90;;;;;;4977559;28;20217;-74
2021/09/19 09:52:09;;;;;;;5.10;4.07;;;17.50;99.90;;;;;;4977368;28;20202;-75
2021/09/19 09:54:46;;;;;;;4.90;4.40;;;17.90;99.90;;;;;;4977334;28;20317;-74
2021/09/19 09:57:16;;;;;;;5.30;4.70;;;18.00;99.90;;;;;;4977532;28;20217;-74
2021/09/19 09:59:45;;;;;;;6.00;4.95;;;18.00;99.90;;;;;;4977552;28;20621;-75
2021/09/19 10:02:15;;;;;;;5.78;4.80;;;18.00;99.90;;;;;;4977337;28;20335;-74
2021/09/19 10:04:43;;;;;;;5.05;4.45;;;18.00;99.90;;;;;;4977842;28;20226;-74
2021/09/19 10:07:10;;;;;;;5.47;4.80;;;18.10;99.90;;;;;;4977137;28;20216;-74
2021/09/19 10:09:37;;;;;;;5.57;4.80;;;18.50;99.90;;;;;;4977314;28;20447;-74
2021/09/19 10:12:05;;;;;;;4.60;4.10;;;19.30;99.90;;;;;;4976925;28;20455;-74
2021/09/19 10:14:32;;;;;;;4.97;4.47;;;20.50;99.90;;;;;;4977255;28;20560;-74
2021/09/19 10:16:59;;;;;;;5.10;4.60;;;20.80;99.90;;;;;;4977190;28;20481;-75
2021/09/19 10:19:26;;;;;;;4.40;3.70;;;21.20;99.90;;;;;;4977059;28;20536;-75
2021/09/19 10:21:55;;;;;;;4.73;4.20;;;21.40;99.90;;;;;;4976871;28;20457;-74
2021/09/19 10:24:23;;;;;;;4.73;4.33;;;21.70;99.90;;;;;;4976543;28;20539;-74
2021/09/19 10:26:55;;;;;;;4.90;4.40;;;21.50;99.90;;;;;;4976843;28;20442;-74
2021/09/19 10:29:28;;;;;;;5.40;4.70;;;21.60;99.90;;;;;;4976998;28;20450;-74
2021/09/19 10:31:57;;;;;;;5.30;4.80;;;21.50;99.90;;;;;;4976754;28;20829;-74
2021/09/19 10:34:28;;;;;;;7.63;5.70;;;21.20;99.90;;;;;;4976749;28;20491;-74
2021/09/19 10:36:56;;;;;;;4.40;4.00;;;20.80;99.90;;;;;;4976791;28;20816;-74
2021/09/19 10:39:26;;;;;;;4.40;4.00;;;20.70;99.90;;;;;;4976635;28;20952;-74
2021/09/19 10:42:10;;;;;;;5.93;5.33;;;20.20;99.90;;;;;;4976525;28;20463;-74
2021/09/19 10:44:56;;;;;;;5.50;4.90;;;20.00;99.90;;;;;;4976499;28;20477;-74
2021/09/19 10:47:36;;;;;;;6.20;4.97;;;19.90;99.90;;;;;;4976431;28;20940;-74
2021/09/19 10:50:28;;;;;;;5.00;4.50;;;20.10;99.90;;;;;;4976663;28;20455;-74
2021/09/19 10:52:57;;;;;;;5.20;4.47;;;20.30;99.90;;;;;;4976361;28;20476;-74
2021/09/19 10:55:48;;;;;;;5.50;4.53;;;20.50;99.90;;;;;;4976510;28;20454;-74
2021/09/19 10:58:19;;;;;;;5.00;4.20;;;21.30;99.90;;;;;;4976423;28;20839;-74
2021/09/19 11:01:08;;;;;;;5.53;5.03;;;22.10;99.90;;;;;;4976309;28;20447;-74
2021/09/19 11:03:35;;;;;;;5.13;4.63;;;23.10;96.80;;;;;;4976307;28;20477;-74
2021/09/19 11:06:01;;;;;;;5.20;4.70;;;24.00;95.20;;;;;;4976756;28;20452;-75
2021/09/19 11:08:40;;;;;;;5.53;4.93;;;25.00;93.10;;;;;;4976076;28;20445;-75
2021/09/19 11:11:13;;;;;;;4.80;4.40;;;25.40;89.10;;;;;;4976104;28;20480;-74
2021/09/19 11:13:42;;;;;;;5.40;4.50;;;25.90;90.40;;;;;;4975995;28;20477;-75
2021/09/19 11:16:19;;;;;;;4.93;4.53;;;27.00;84.90;;;;;;4976122;28;20858;-75
2021/09/19 11:18:48;;;;;;;5.13;4.73;;;26.70;83.00;;;;;;4975822;28;20568;-74
2021/09/19 11:21:15;;;;;;;5.40;4.90;;;27.20;81.00;;;;;;4975871;28;20446;-75
2021/09/19 11:23:46;;;;;;;5.57;5.07;;;26.50;79.70;;;;;;4975790;28;20469;-74
2021/09/19 11:26:15;;;;;;;4.73;4.30;;;27.00;77.30;;;;;;4976012;28;20796;-74
2021/09/19 11:28:42;;;;;;;5.90;5.10;;;26.40;79.80;;;;;;4975807;28;20445;-74
2021/09/19 11:31:10;;;;;;;4.73;4.30;;;25.80;78.90;;;;;;4975686;28;20804;-74
2021/09/19 11:33:39;;;;;;;5.10;4.70;;;25.80;82.60;;;;;;4975500;28;20563;-74
2021/09/19 11:36:08;;;;;;;5.53;4.93;;;25.90;79.40;;;;;;4975332;28;20456;-74
2021/09/19 11:38:36;;;;;;;5.40;4.90;;;25.50;80.80;;;;;;4975538;28;20492;-74
2021/09/19 11:41:03;;;;;;;4.80;4.40;;;25.00;83.30;;;;;;4975401;28;20946;-74
2021/09/19 11:43:32;;;;;;;5.40;4.73;;;24.70;82.80;;;;;;4975636;28;20689;-74
2021/09/19 11:46:00;;;;;;;5.50;4.97;;;24.50;84.10;;;;;;4975594;28;20449;-74
2021/09/19 11:48:27;;;;;;;4.53;4.13;;;24.30;86.10;;;;;;4975380;28;20441;-74
2021/09/19 11:50:55;;;;;;;5.03;4.63;;;24.30;85.20;;;;;;4975479;28;20453;-74
2021/09/19 11:53:22;;;;;;;5.00;4.50;;;24.30;86.00;;;;;;4975290;28;20551;-74
2021/09/19 11:55:49;;;;;;;5.33;4.83;;;23.50;87.50;;;;;;4975136;28;20456;-74
2021/09/19 11:58:16;;;;;;;5.37;4.40;;;22.80;89.40;;;;;;4975351;28;20482;-74
2021/09/19 12:00:46;;;;;;;5.80;5.10;;;22.10;90.90;;;;;;4975361;28;20453;-74
2021/09/19 12:03:13;;;;;;;5.20;4.70;;;22.10;92.00;;;;;;4975058;28;20477;-74
2021/09/19 12:05:40;;;;;;;6.37;5.33;;;22.10;92.00;;;;;;4975048;28;20492;-74
2021/09/19 12:08:08;;;;;;;5.17;4.67;;;22.20;93.80;;;;;;4975174;28;20438;-74
2021/09/19 12:10:36;;;;;;;5.10;4.60;;;22.20;92.70;;;;;;4975151;28;20456;-74
2021/09/19 12:13:21;;;;;;;5.47;4.97;;;22.30;93.00;;;;;;4974960;28;20538;-74
2021/09/19 12:16:00;;;;;;;5.60;5.00;;;21.70;92.80;;;;;;4974965;28;20905;-74
2021/09/19 12:18:28;;;;;;;5.70;5.10;;;21.60;93.50;;;;;;4975078;28;20481;-74
2021/09/19 12:21:00;;;;;;;5.20;4.70;;;21.40;93.10;;;;;;4975036;28;20471;-74
2021/09/19 12:23:40;;;;;;;5.17;4.77;;;21.20;93.60;;;;;;4974871;28;20499;-74
2021/09/19 12:26:07;;;;;;;4.57;4.17;;;21.30;95.50;;;;;;4975100;28;20803;-74
2021/09/19 12:28:37;;;;;;;5.60;5.07;;;21.30;95.80;;;;;;4974851;28;20450;-74
2021/09/19 12:31:05;;;;;;;5.40;4.80;;;21.00;93.50;;;;;;4974783;28;20506;-74
2021/09/19 12:33:32;;;;;;;4.80;4.40;;;21.00;94.10;;;;;;4974473;28;21061;-74
2021/09/19 12:35:59;;;;;;;5.23;4.67;;;20.90;94.90;;;;;;4974676;28;20940;-74
2021/09/19 12:38:28;;;;;;;4.80;4.30;;;21.10;94.50;;;;;;4974774;28;20481;-74
2021/09/19 12:41:05;;;;;;;4.30;3.90;;;21.30;94.30;;;;;;4974834;28;20519;-75
2021/09/19 12:43:32;;;;;;;4.40;4.00;;;21.60;94.90;;;;;;4974489;28;20548;-75
2021/09/19 12:45:59;;;;;;;4.53;4.13;;;21.90;94.60;;;;;;4976181;28;20451;-74